createdAt,value
2023-02-09T00:01:30.296Z,9.60
2023-02-09T00:03:58.833Z,7.87
2023-02-09T00:06:27.218Z,12.53
2023-02-09T00:08:54.733Z,8.47
2023-02-09T00:11:44.474Z,6.50
2023-02-09T00:14:13.651Z,8.93
2023-02-09T00:16:41.838Z,6.07
2023-02-09T00:19:10.303Z,6.73
2023-02-09T00:21:38.139Z,7.70
2023-02-09T00:24:06.506Z,9.00
2023-02-09T00:26:34.199Z,7.47
2023-02-09T00:29:01.928Z,7.80
2023-02-09T00:31:29.640Z,6.07
2023-02-09T00:34:00.683Z,7.27
2023-02-09T00:36:28.683Z,7.63
2023-02-09T00:38:56.653Z,6.60
2023-02-09T00:41:42.691Z,6.77
2023-02-09T00:44:11.610Z,5.90
2023-02-09T00:46:39.284Z,7.97
2023-02-09T00:49:07.261Z,8.83
2023-02-09T00:51:35.245Z,6.40
2023-02-09T00:54:04.219Z,10.03
2023-02-09T00:56:32.050Z,6.80
2023-02-09T00:59:00.683Z,7.53
2023-02-09T01:01:28.664Z,6.60
2023-02-09T01:03:56.712Z,6.23
2023-02-09T01:06:24.155Z,8.47
2023-02-09T01:08:51.792Z,6.97
2023-02-09T01:11:19.304Z,8.20
2023-02-09T01:13:47.656Z,6.37
2023-02-09T01:16:18.122Z,7.93
2023-02-09T01:18:45.795Z,7.50
2023-02-09T01:21:22.451Z,7.27
2023-02-09T01:23:50.257Z,7.20
2023-02-09T01:26:18.428Z,7.50
2023-02-09T01:28:49.967Z,7.30
2023-02-09T01:31:24.345Z,6.00
2023-02-09T01:33:54.149Z,8.40
2023-02-09T01:36:22.263Z,6.87
2023-02-09T01:38:50.909Z,5.80
2023-02-09T01:41:18.532Z,6.80
2023-02-09T01:44:00.651Z,6.37
2023-02-09T01:46:36.860Z,6.60
2023-02-09T01:49:13.245Z,9.40
2023-02-09T01:51:50.686Z,6.93
2023-02-09T01:54:46.327Z,7.67
2023-02-09T01:57:35.627Z,7.63
2023-02-09T02:00:08.850Z,7.47
2023-02-09T02:02:44.900Z,7.37
2023-02-09T02:05:12.879Z,6.03
2023-02-09T02:07:49.022Z,8.83
2023-02-09T02:10:16.698Z,8.60
2023-02-09T02:12:44.376Z,8.43
2023-02-09T02:15:12.141Z,8.03
2023-02-09T02:18:17.712Z,7.57
2023-02-09T02:21:14.854Z,8.00
2023-02-09T02:23:53.800Z,6.23
2023-02-09T02:26:47.117Z,6.43
2023-02-09T02:29:36.343Z,8.57
2023-02-09T02:32:10.689Z,8.00
2023-02-09T02:34:51.217Z,7.57
2023-02-09T02:37:30.656Z,8.90
2023-02-09T02:39:58.076Z,7.40
2023-02-09T02:42:48.386Z,8.20
2023-02-09T02:45:29.688Z,8.00
2023-02-09T02:48:32.469Z,5.83
2023-02-09T02:51:03.079Z,8.90
2023-02-09T02:53:33.473Z,6.90
2023-02-09T02:56:12.821Z,7.93
2023-02-09T02:58:43.777Z,12.07
2023-02-09T03:01:15.082Z,8.37
2023-02-09T03:03:45.050Z,6.87
2023-02-09T03:06:14.057Z,9.13
2023-02-09T03:08:54.701Z,7.70
2023-02-09T03:11:25.104Z,6.90
2023-02-09T03:14:29.538Z,10.97
2023-02-09T03:17:41.140Z,8.73
2023-02-09T03:20:17.007Z,7.57
2023-02-09T03:22:56.444Z,7.53
2023-02-09T03:25:43.885Z,8.63
2023-02-09T03:28:27.594Z,9.18
2023-02-09T03:30:56.493Z,8.23
2023-02-09T03:33:27.562Z,8.93
2023-02-09T03:35:57.450Z,9.80
2023-02-09T03:38:25.444Z,7.47
2023-02-09T03:40:53.508Z,9.70
2023-02-09T03:43:41.260Z,10.17
2023-02-09T03:46:10.091Z,7.63
2023-02-09T03:48:38.105Z,9.83
2023-02-09T03:51:06.926Z,8.30
2023-02-09T03:53:38.301Z,10.73
2023-02-09T03:56:09.415Z,8.83
2023-02-09T03:58:37.438Z,7.70
2023-02-09T04:01:07.925Z,8.60
2023-02-09T04:03:37.536Z,13.27
2023-02-09T04:06:05.656Z,9.47
2023-02-09T04:08:33.856Z,9.97
2023-02-09T04:11:01.603Z,9.10
2023-02-09T04:13:29.312Z,9.63
2023-02-09T04:15:57.233Z,10.00
2023-02-09T04:18:24.769Z,11.20
2023-02-09T04:20:52.284Z,9.23
2023-02-09T04:23:21.111Z,11.30
2023-02-09T04:25:48.715Z,8.77
2023-02-09T04:28:18.352Z,9.13
2023-02-09T04:30:46.317Z,9.87
2023-02-09T04:33:14.030Z,11.40
2023-02-09T04:35:44.046Z,8.50
2023-02-09T04:38:11.848Z,10.37
2023-02-09T04:40:39.314Z,9.23
2023-02-09T04:43:06.892Z,15.87
2023-02-09T04:45:34.386Z,9.90
2023-02-09T04:48:02.034Z,10.07
2023-02-09T04:50:29.530Z,10.00
2023-02-09T04:52:56.970Z,8.97
2023-02-09T04:55:24.434Z,10.23
2023-02-09T04:58:10.400Z,14.73
2023-02-09T05:00:38.044Z,11.30
2023-02-09T05:03:05.886Z,10.53
2023-02-09T05:05:34.532Z,10.73
2023-02-09T05:08:01.991Z,13.10
2023-02-09T05:10:29.587Z,12.27
2023-02-09T05:12:57.145Z,11.80
2023-02-09T05:15:27.028Z,16.30
2023-02-09T05:17:55.137Z,12.17
2023-02-09T05:20:22.582Z,9.97
2023-02-09T05:22:50.314Z,10.47
2023-02-09T05:25:17.856Z,10.43
2023-02-09T05:27:47.793Z,11.77
2023-02-09T05:30:15.332Z,10.07
2023-02-09T05:32:42.793Z,9.90
2023-02-09T05:35:10.308Z,10.97
2023-02-09T05:37:37.827Z,14.77
2023-02-09T05:40:05.881Z,14.13
2023-02-09T05:42:33.451Z,10.93
2023-02-09T05:45:00.874Z,14.83
2023-02-09T05:47:28.367Z,11.87
2023-02-09T05:49:56.160Z,14.43
2023-02-09T05:52:23.668Z,13.87
2023-02-09T05:54:51.253Z,11.43
2023-02-09T05:57:18.907Z,13.53
2023-02-09T05:59:46.612Z,12.30
2023-02-09T06:02:14.206Z,12.37
2023-02-09T06:04:41.860Z,14.63
2023-02-09T06:07:11.832Z,15.23
2023-02-09T06:09:39.605Z,12.40
2023-02-09T06:12:07.222Z,16.20
2023-02-09T06:14:34.702Z,15.00
2023-02-09T06:17:02.298Z,14.27
2023-02-09T06:19:30.754Z,13.93
2023-02-09T06:21:58.849Z,14.03
2023-02-09T06:24:26.432Z,11.83
2023-02-09T06:26:54.066Z,15.83
2023-02-09T06:29:21.496Z,14.27
2023-02-09T06:31:49.089Z,12.77
2023-02-09T06:34:16.658Z,11.17
2023-02-09T06:36:44.456Z,13.77
2023-02-09T06:39:12.226Z,12.57
2023-02-09T06:41:40.276Z,13.77
2023-02-09T06:44:07.904Z,13.93
2023-02-09T06:46:35.498Z,13.77
2023-02-09T06:49:03.030Z,11.63
2023-02-09T06:51:30.758Z,16.53
2023-02-09T06:53:58.374Z,10.63
2023-02-09T06:56:25.959Z,9.80
2023-02-09T06:58:53.486Z,13.60
2023-02-09T07:01:21.419Z,11.20
2023-02-09T07:03:48.987Z,11.53
2023-02-09T07:06:19.603Z,11.17
2023-02-09T07:08:48.794Z,13.70
2023-02-09T07:11:19.855Z,14.97
2023-02-09T07:13:47.544Z,9.73
2023-02-09T07:16:15.454Z,11.13
2023-02-09T07:18:43.508Z,8.00
2023-02-09T07:21:18.737Z,8.57
2023-02-09T07:23:48.083Z,11.07
2023-02-09T07:26:17.515Z,9.47
2023-02-09T07:28:45.321Z,10.50
2023-02-09T07:31:16.013Z,8.60
2023-02-09T07:33:43.939Z,8.07
2023-02-09T07:36:13.927Z,8.90
2023-02-09T07:38:41.974Z,8.43
2023-02-09T07:41:15.681Z,7.33
2023-02-09T07:43:43.471Z,8.60
2023-02-09T07:46:14.153Z,10.63
2023-02-09T07:48:41.663Z,10.43
2023-02-09T07:51:20.223Z,11.67
2023-02-09T07:53:48.235Z,9.83
2023-02-09T07:56:15.705Z,10.97
2023-02-09T07:58:43.449Z,8.97
2023-02-09T08:01:12.735Z,12.13
2023-02-09T08:03:44.426Z,9.17
2023-02-09T08:06:41.489Z,10.20
2023-02-09T08:09:11.067Z,9.88
2023-02-09T08:11:54.539Z,11.53
2023-02-09T08:14:39.981Z,9.53
2023-02-09T08:17:21.592Z,10.87
2023-02-09T08:19:58.799Z,9.83
2023-02-09T08:22:30.311Z,8.82
2023-02-09T08:24:59.280Z,13.40
2023-02-09T08:27:27.044Z,10.27
2023-02-09T08:29:54.838Z,8.53
2023-02-09T08:32:22.474Z,12.20
2023-02-09T08:34:50.059Z,9.27
2023-02-09T08:37:17.594Z,9.77
2023-02-09T08:39:45.359Z,11.67
2023-02-09T08:42:12.923Z,9.63
2023-02-09T08:44:40.451Z,8.67
2023-02-09T08:47:08.093Z,10.87
2023-02-09T08:49:36.218Z,8.93
2023-02-09T08:52:04.296Z,14.23
2023-02-09T08:54:31.856Z,10.17
2023-02-09T08:56:59.752Z,12.10
2023-02-09T08:59:28.314Z,9.67
2023-02-09T09:01:55.934Z,10.27
2023-02-09T09:04:23.427Z,9.43
2023-02-09T09:06:55.163Z,8.90
2023-02-09T09:09:22.820Z,10.00
2023-02-09T09:11:50.302Z,14.30
2023-02-09T09:14:17.883Z,8.13
2023-02-09T09:16:45.379Z,11.27
2023-02-09T09:19:13.005Z,10.80
2023-02-09T09:21:40.501Z,13.87
2023-02-09T09:24:08.167Z,10.17
2023-02-09T09:26:36.025Z,10.80
2023-02-09T09:29:04.182Z,11.27
2023-02-09T09:31:33.607Z,11.33
2023-02-09T09:34:01.316Z,9.03
2023-02-09T09:36:28.906Z,16.67
2023-02-09T09:38:56.670Z,11.63
2023-02-09T09:41:32.196Z,12.93
2023-02-09T09:44:01.616Z,12.63
2023-02-09T09:46:43.726Z,13.33
2023-02-09T09:49:30.187Z,10.97
2023-02-09T09:52:13.370Z,16.67
2023-02-09T09:54:42.200Z,12.73
2023-02-09T09:57:30.535Z,15.33
2023-02-09T09:59:58.260Z,14.87
2023-02-09T10:02:30.152Z,13.67
2023-02-09T10:05:23.982Z,16.87
2023-02-09T10:08:10.624Z,15.60
2023-02-09T10:10:51.350Z,16.10
2023-02-09T10:13:25.477Z,17.20
2023-02-09T10:15:56.874Z,15.70
2023-02-09T10:18:27.873Z,15.13
2023-02-09T10:21:01.991Z,18.07
2023-02-09T10:23:42.527Z,15.20
2023-02-09T10:26:10.074Z,15.33
2023-02-09T10:28:51.773Z,15.10
2023-02-09T10:31:48.159Z,13.20
2023-02-09T10:34:18.268Z,13.67
2023-02-09T10:36:51.723Z,17.47
2023-02-09T10:39:23.331Z,11.57
2023-02-09T10:41:54.447Z,13.67
2023-02-09T10:44:26.008Z,13.50
2023-02-09T10:47:11.996Z,13.43
2023-02-09T10:49:42.530Z,11.40
2023-02-09T10:52:13.077Z,12.00
2023-02-09T10:54:48.928Z,11.53
2023-02-09T10:57:28.567Z,10.03
2023-02-09T11:00:02.095Z,12.23
2023-02-09T11:02:35.777Z,10.87
2023-02-09T11:05:24.353Z,14.57
2023-02-09T11:07:58.092Z,8.23
2023-02-09T11:10:29.251Z,8.83
2023-02-09T11:12:58.449Z,11.67
2023-02-09T11:15:28.277Z,9.00
2023-02-09T11:18:17.192Z,9.80
2023-02-09T11:20:51.854Z,8.20
2023-02-09T11:24:04.679Z,11.10
2023-02-09T11:27:14.306Z,10.70
2023-02-09T11:29:57.303Z,9.13
2023-02-09T11:32:45.048Z,14.87
2023-02-09T11:35:19.007Z,9.68
2023-02-09T11:38:13.981Z,11.20
2023-02-09T11:40:57.200Z,10.50
2023-02-09T11:43:33.654Z,10.57
2023-02-09T11:46:11.196Z,13.53
2023-02-09T11:48:44.074Z,14.10
2023-02-09T11:51:27.168Z,15.33
2023-02-09T11:54:10.891Z,11.43
2023-02-09T11:56:46.466Z,10.10
2023-02-09T11:59:34.212Z,10.00
2023-02-09T12:02:22.180Z,10.25
2023-02-09T12:05:00.679Z,15.33
2023-02-09T12:07:44.956Z,9.00
2023-02-09T12:10:35.752Z,9.97
2023-02-09T12:13:27.755Z,12.03
2023-02-09T12:16:02.438Z,8.33
2023-02-09T12:18:33.403Z,7.93
2023-02-09T12:21:06.394Z,6.33
2023-02-09T12:23:34.932Z,6.60
2023-02-09T12:26:11.837Z,5.80
2023-02-09T12:28:39.327Z,9.60
2023-02-09T12:31:14.297Z,8.03
2023-02-09T12:33:44.845Z,5.27
2023-02-09T12:36:18.185Z,5.80
2023-02-09T12:39:03.934Z,6.33
2023-02-09T12:41:52.026Z,4.17
2023-02-09T12:44:19.960Z,3.92
2023-02-09T12:46:55.694Z,6.77
2023-02-09T12:49:29.181Z,5.73
2023-02-09T12:51:59.461Z,4.73
2023-02-09T12:54:39.037Z,5.93
2023-02-09T12:57:15.663Z,3.27
2023-02-09T13:00:03.739Z,4.03
2023-02-09T13:02:48.516Z,4.43
2023-02-09T13:05:39.357Z,5.80
2023-02-09T13:08:21.971Z,5.80
2023-02-09T13:11:17.888Z,2.77
2023-02-09T13:13:51.382Z,3.90
2023-02-09T13:16:25.213Z,5.97
2023-02-09T13:19:04.703Z,4.53
2023-02-09T13:21:57.758Z,3.67
2023-02-09T13:24:52.939Z,4.67
2023-02-09T13:27:22.976Z,2.67
2023-02-09T13:30:01.640Z,2.60
2023-02-09T13:32:44.065Z,4.07
2023-02-09T13:35:24.507Z,5.03
2023-02-09T13:37:58.127Z,2.87
2023-02-09T13:40:33.185Z,3.07
2023-02-09T13:43:11.965Z,3.93
2023-02-09T13:46:06.161Z,4.70
2023-02-09T13:48:37.709Z,2.33
2023-02-09T13:51:16.321Z,2.50
2023-02-09T13:54:04.404Z,3.10
2023-02-09T14:01:33.006Z,2.90
2023-02-09T14:04:10.618Z,3.40
2023-02-09T14:09:20.087Z,3.47
2023-02-09T14:12:01.730Z,2.50
2023-02-09T14:14:59.444Z,5.00
2023-02-09T14:17:34.943Z,2.80
2023-02-09T14:20:03.384Z,2.90
2023-02-09T14:22:40.098Z,3.50
2023-02-09T14:25:13.820Z,3.00
2023-02-09T14:27:47.550Z,4.97
2023-02-09T14:30:23.873Z,4.67
2023-02-09T14:32:56.570Z,4.00
2023-02-09T14:35:36.647Z,2.73
2023-02-09T14:38:05.769Z,4.77
2023-02-09T14:40:37.050Z,3.17
2023-02-09T14:43:11.060Z,5.47
2023-02-09T14:45:46.628Z,3.80
2023-02-09T14:48:23.335Z,5.30
2023-02-09T14:50:59.686Z,4.70
2023-02-09T14:53:31.283Z,3.93
2023-02-09T14:55:59.347Z,5.97
2023-02-09T14:58:29.360Z,4.60
2023-02-09T15:01:00.299Z,4.27
2023-02-09T15:03:28.032Z,5.07
2023-02-09T15:06:03.963Z,2.93
2023-02-09T15:08:35.774Z,4.00
2023-02-09T15:11:26.496Z,2.80
2023-02-09T15:13:58.704Z,3.67
2023-02-09T15:16:26.519Z,2.57
2023-02-09T15:18:54.141Z,4.90
2023-02-09T15:21:21.763Z,5.13
2023-02-09T15:23:49.697Z,3.67
2023-02-09T15:26:22.738Z,4.77
2023-02-09T15:28:50.463Z,4.87
2023-02-09T15:31:18.732Z,2.53
2023-02-09T15:33:46.200Z,4.57
2023-02-09T15:36:19.663Z,2.90
2023-02-09T15:38:47.436Z,4.00
2023-02-09T15:41:35.845Z,4.87
2023-02-09T15:44:42.067Z,4.93
2023-02-09T15:47:28.048Z,2.47
2023-02-09T15:49:55.579Z,3.00
2023-02-09T15:52:23.082Z,2.57
2023-02-09T15:54:52.725Z,3.73
2023-02-09T15:57:20.398Z,3.53
2023-02-09T15:59:49.058Z,4.47
2023-02-09T16:02:19.565Z,5.67
2023-02-09T16:04:48.047Z,2.07
2023-02-09T16:07:24.571Z,3.60
2023-02-09T16:09:52.878Z,4.87
2023-02-09T16:12:20.926Z,3.87
2023-02-09T16:14:48.524Z,4.30
2023-02-09T16:17:20.491Z,3.53
2023-02-09T16:19:49.326Z,3.17
2023-02-09T16:22:17.112Z,4.23
2023-02-09T16:24:46.318Z,4.53
2023-02-09T16:27:24.641Z,4.10
2023-02-09T16:29:52.226Z,4.20
2023-02-09T16:32:22.497Z,4.20
2023-02-09T16:34:51.389Z,4.77
2023-02-09T16:37:27.158Z,4.03
2023-02-09T16:39:55.821Z,5.00
2023-02-09T16:42:25.497Z,2.57
2023-02-09T16:44:53.586Z,3.17
2023-02-09T16:47:26.198Z,4.43
2023-02-09T16:50:00.257Z,4.13
2023-02-09T16:52:30.393Z,7.80
2023-02-09T16:55:06.310Z,4.57
2023-02-09T16:57:33.905Z,5.97
2023-02-09T17:00:01.394Z,5.60
2023-02-09T17:02:40.902Z,5.73
2023-02-09T17:05:18.587Z,6.78
2023-02-09T17:10:25.246Z,5.90
2023-02-09T17:12:53.854Z,5.37
2023-02-09T17:15:30.672Z,5.13
2023-02-09T17:18:07.497Z,7.47
2023-02-09T17:20:42.668Z,5.80
2023-02-09T17:23:15.195Z,6.17
2023-02-09T17:25:43.896Z,5.40
2023-02-09T17:28:12.274Z,3.57
2023-02-09T17:30:41.753Z,4.20
2023-02-09T17:33:20.030Z,8.30
2023-02-09T17:36:22.417Z,5.87
2023-02-09T17:38:37.575Z,6.15
2023-02-09T17:41:08.406Z,5.97
2023-02-09T17:43:38.723Z,5.67
2023-02-09T17:46:08.048Z,5.47
2023-02-09T17:48:35.898Z,9.27
2023-02-09T17:51:07.069Z,6.03
2023-02-09T17:53:35.604Z,6.97
2023-02-09T17:56:03.149Z,6.83
2023-02-09T17:58:30.726Z,7.17
2023-02-09T18:00:58.328Z,6.93
2023-02-09T18:03:26.264Z,8.57
2023-02-09T18:05:58.787Z,7.97
2023-02-09T18:08:27.472Z,6.73
2023-02-09T18:10:58.798Z,7.77
2023-02-09T18:13:27.398Z,8.90
2023-02-09T18:15:55.306Z,5.80
2023-02-09T18:18:24.373Z,7.70
2023-02-09T18:20:52.374Z,7.00
2023-02-09T18:23:19.925Z,8.67
2023-02-09T18:25:49.809Z,6.67
2023-02-09T18:28:17.676Z,6.17
2023-02-09T18:30:45.748Z,5.73
2023-02-09T18:33:16.117Z,5.80
2023-02-09T18:35:47.220Z,10.53
2023-02-09T18:38:16.037Z,7.07
2023-02-09T18:40:43.673Z,5.20
2023-02-09T18:43:14.784Z,8.10
2023-02-09T18:45:42.463Z,7.80
2023-02-09T18:48:10.936Z,8.37
2023-02-09T18:50:38.519Z,7.50
2023-02-09T18:53:06.030Z,5.80
2023-02-09T18:55:35.296Z,10.20
2023-02-09T18:58:05.439Z,9.47
2023-02-09T19:00:33.818Z,7.20
2023-02-09T19:03:02.157Z,6.73
2023-02-09T19:05:32.542Z,5.90
2023-02-09T19:08:00.304Z,7.67
2023-02-09T19:10:29.622Z,9.30
2023-02-09T19:12:57.145Z,6.80
2023-02-09T19:15:25.918Z,7.93
2023-02-09T19:17:56.628Z,5.93
2023-02-09T19:20:27.139Z,6.97
2023-02-09T19:22:55.471Z,7.67
2023-02-09T19:25:24.913Z,9.73
2023-02-09T19:27:53.531Z,8.23
2023-02-09T19:30:26.742Z,7.03
2023-02-09T19:33:02.417Z,5.00
2023-02-09T19:35:30.027Z,6.57
2023-02-09T19:37:58.535Z,7.43
2023-02-09T19:40:30.323Z,9.03
2023-02-09T19:42:57.885Z,7.63
2023-02-09T19:45:25.373Z,5.20
2023-02-09T19:47:53.053Z,5.50
2023-02-09T19:50:20.872Z,6.13
2023-02-09T19:52:50.531Z,6.57
2023-02-09T19:55:18.316Z,5.73
2023-02-09T19:57:45.821Z,5.37
2023-02-09T20:00:18.489Z,5.93
2023-02-09T20:02:47.159Z,5.63
2023-02-09T20:05:16.345Z,4.97
2023-02-09T20:07:43.949Z,4.60
2023-02-09T20:10:11.441Z,6.87
2023-02-09T20:12:40.341Z,6.83
2023-02-09T20:15:08.094Z,5.30
2023-02-09T20:17:35.941Z,6.33
2023-02-09T20:20:04.372Z,6.30
2023-02-09T20:22:32.082Z,5.00
2023-02-09T20:24:59.643Z,4.30
2023-02-09T20:27:27.129Z,8.00
2023-02-09T20:30:01.215Z,3.37
2023-02-09T20:32:31.125Z,5.33
2023-02-09T20:34:58.679Z,3.57
2023-02-09T20:37:26.288Z,4.70
2023-02-09T20:39:53.921Z,3.87
2023-02-09T20:42:40.125Z,4.87
2023-02-09T20:45:33.949Z,4.33
2023-02-09T20:48:04.254Z,4.37
2023-02-09T20:50:33.102Z,4.10
2023-02-09T20:53:04.220Z,6.10
2023-02-09T20:55:32.062Z,4.60
2023-02-09T20:57:59.667Z,5.73
2023-02-09T21:00:27.195Z,6.77
2023-02-09T21:02:54.878Z,5.63
2023-02-09T21:05:22.338Z,3.00
2023-02-09T21:07:52.162Z,3.83
2023-02-09T21:10:21.761Z,4.80
2023-02-09T21:12:52.183Z,4.23
2023-02-09T21:15:20.231Z,4.30
2023-02-09T21:17:49.231Z,4.63
2023-02-09T21:20:22.978Z,4.80
2023-02-09T21:22:56.326Z,4.27
2023-02-09T21:25:27.757Z,4.30
2023-02-09T21:27:59.861Z,6.20
2023-02-09T21:30:29.238Z,5.47
2023-02-09T21:33:00.555Z,3.30
2023-02-09T21:35:29.782Z,5.03
2023-02-09T21:37:58.161Z,3.13
2023-02-09T21:40:26.765Z,4.70
2023-02-09T21:42:57.397Z,3.73
2023-02-09T21:45:29.065Z,5.73
2023-02-09T21:48:02.190Z,6.22
2023-02-09T21:50:29.854Z,5.87
2023-02-09T21:52:59.561Z,6.13
2023-02-09T21:55:27.240Z,5.13
2023-02-09T21:57:54.718Z,5.80
2023-02-09T22:00:22.307Z,5.47
2023-02-09T22:02:54.610Z,4.20
2023-02-09T22:05:23.354Z,5.10
2023-02-09T22:07:50.928Z,5.17
2023-02-09T22:10:18.626Z,6.13
2023-02-09T22:12:51.952Z,9.17
2023-02-09T22:15:19.578Z,5.77
2023-02-09T22:17:48.407Z,3.73
2023-02-09T22:20:16.093Z,4.23
2023-02-09T22:22:45.439Z,5.90
2023-02-09T22:25:13.047Z,5.70
2023-02-09T22:27:47.813Z,6.30
2023-02-09T22:30:15.381Z,5.80
2023-02-09T22:32:42.952Z,5.73
2023-02-09T22:35:10.437Z,4.87
2023-02-09T22:37:37.966Z,3.33
2023-02-09T22:40:05.705Z,4.43
2023-02-09T22:42:33.236Z,4.10
2023-02-09T22:45:00.703Z,3.80
2023-02-09T22:47:28.135Z,6.00
2023-02-09T22:49:55.605Z,4.97
2023-02-09T22:52:23.151Z,4.90
2023-02-09T22:54:50.639Z,5.40
2023-02-09T22:57:18.532Z,6.17
2023-02-09T22:59:45.955Z,5.57
2023-02-09T23:02:13.452Z,4.27
2023-02-09T23:04:40.959Z,6.67
2023-02-09T23:07:08.438Z,4.27
2023-02-09T23:09:36.017Z,6.77
2023-02-09T23:12:03.587Z,4.90
2023-02-09T23:14:31.168Z,5.27
2023-02-09T23:16:59.721Z,4.33
2023-02-09T23:19:27.308Z,7.63
2023-02-09T23:21:54.769Z,5.10
2023-02-09T23:24:22.666Z,6.03
2023-02-09T23:26:50.522Z,4.77
2023-02-09T23:29:19.035Z,4.10
2023-02-09T23:31:47.994Z,6.20
2023-02-09T23:34:18.715Z,8.53
2023-02-09T23:36:46.321Z,6.20
2023-02-09T23:39:17.197Z,8.10
2023-02-09T23:41:45.047Z,4.77
2023-02-09T23:44:12.805Z,7.97
2023-02-09T23:46:40.895Z,6.77
2023-02-09T23:49:08.445Z,5.40
2023-02-09T23:51:36.727Z,6.77
2023-02-09T23:54:06.853Z,6.63
2023-02-09T23:56:37.397Z,4.90
2023-02-09T23:59:06.831Z,6.00
